Time;durP1;ratioP1;P1;durP2;ratioP2;P2;SDS_P1;SDS_P2;PMS_P1;PMS_P2;Temp;Humidity;BMP_temperature;BMP_pressure;BME280_temperature;BME280_humidity;BME280_pressure;Samples;Min_cycle;Max_cycle;Signal;HPM_P1;HPM_P2
2021/03/20 00:00:54;;;;;;;6.40;5.07;;;;;;;1.87;70.33;101433.56;5015735;28;20054;-84
2021/03/20 00:03:21;;;;;;;6.95;5.30;;;;;;;1.86;70.00;101435.31;5019423;28;20046;-84
2021/03/20 00:05:48;;;;;;;6.68;4.43;;;;;;;1.85;70.59;101436.19;5018628;28;20049;-84
2021/03/20 00:08:17;;;;;;;7.35;5.20;;;;;;;1.84;70.54;101441.38;5023664;28;20052;-80
2021/03/20 00:10:45;;;;;;;7.55;5.10;;;;;;;1.85;70.64;101437.91;5022286;28;20088;-85
2021/03/20 00:13:13;;;;;;;7.60;5.15;;;;;;;1.80;71.15;101431.78;5014275;28;20529;-81
2021/03/20 00:15:41;;;;;;;6.38;5.00;;;;;;;1.74;71.24;101440.44;5014271;28;20134;-81
2021/03/20 00:18:10;;;;;;;7.50;5.30;;;;;;;1.69;71.81;101431.75;5000991;28;20073;-84
2021/03/20 00:20:45;;;;;;;7.95;5.03;;;;;;;1.65;72.22;101445.63;5024830;28;20049;-84
2021/03/20 00:23:11;;;;;;;7.25;5.63;;;;;;;1.61;71.94;101447.34;5017431;28;20109;-83
2021/03/20 00:25:40;;;;;;;8.50;5.40;;;;;;;1.63;72.64;101455.19;5016395;28;20061;-85
2021/03/20 00:28:10;;;;;;;6.88;5.18;;;;;;;1.59;72.63;101451.66;5010424;28;20065;-83
2021/03/20 00:30:38;;;;;;;7.13;5.32;;;;;;;1.52;72.97;101452.50;5016696;28;20377;-86
2021/03/20 00:33:05;;;;;;;6.95;5.20;;;;;;;1.49;73.15;101455.09;5013610;28;20152;-83
2021/03/20 00:35:32;;;;;;;9.50;5.45;;;;;;;1.46;73.63;101459.41;4996226;28;21749;-84
2021/03/20 00:37:59;;;;;;;7.10;5.10;;;;;;;1.42;73.31;101453.28;5011164;28;20050;-83
2021/03/20 00:40:31;;;;;;;7.70;5.32;;;;;;;1.40;73.64;101455.03;5008934;28;20132;-84
2021/03/20 00:42:57;;;;;;;8.68;5.75;;;;;;;1.37;73.96;101457.63;5009795;28;20790;-84
2021/03/20 00:45:25;;;;;;;7.43;5.00;;;;;;;1.33;73.82;101456.72;5005925;28;20045;-82
2021/03/20 00:47:54;;;;;;;8.43;5.47;;;;;;;1.31;73.96;101465.41;5017569;28;20489;-83
2021/03/20 00:50:24;;;;;;;6.85;5.70;;;;;;;1.29;74.17;101472.34;5017614;28;20068;-85
2021/03/20 00:52:51;;;;;;;8.52;5.72;;;;;;;1.27;74.16;101469.72;5015102;28;20223;-85
2021/03/20 00:55:17;;;;;;;7.63;5.45;;;;;;;1.28;74.09;101458.41;5016161;28;20064;-83
2021/03/20 00:57:44;;;;;;;7.57;5.57;;;;;;;1.33;73.75;101461.06;5017894;28;20050;-86
2021/03/20 01:00:18;;;;;;;11.50;5.47;;;;;;;1.34;73.09;101460.22;5016961;28;20053;-83
2021/03/20 01:02:45;;;;;;;6.60;4.85;;;;;;;1.31;73.18;101454.97;5010417;28;20091;-84
2021/03/20 01:05:14;;;;;;;6.30;4.57;;;;;;;1.40;72.97;101468.97;4993370;28;20080;-82
2021/03/20 01:07:43;;;;;;;6.07;4.53;;;;;;;1.43;72.77;101457.66;5014637;28;20062;-85
2021/03/20 01:10:16;;;;;;;7.13;4.57;;;;;;;1.49;72.49;101460.31;5011608;28;20064;-86
2021/03/20 01:12:43;;;;;;;8.88;4.90;;;;;;;1.53;71.51;101456.88;5005201;28;20077;-83
2021/03/20 01:15:11;;;;;;;6.55;4.55;;;;;;;1.56;72.22;101462.13;5020885;28;20061;-84
2021/03/20 01:17:38;;;;;;;6.97;4.50;;;;;;;1.54;71.64;101452.53;5022019;28;20268;-85
2021/03/20 01:20:07;;;;;;;7.78;4.80;;;;;;;1.53;71.38;101458.59;5021144;28;20054;-85
2021/03/20 01:22:36;;;;;;;6.30;4.72;;;;;;;1.51;71.38;101462.94;5006683;28;20082;-86
2021/03/20 01:25:06;;;;;;;9.53;4.80;;;;;;;1.50;71.61;101459.47;5011014;28;20093;-83
2021/03/20 01:27:33;;;;;;;8.05;4.60;;;;;;;1.45;72.04;101461.16;5015652;28;20646;-84
2021/03/20 01:29:59;;;;;;;7.65;4.22;;;;;;;1.45;71.72;101468.09;5013913;28;20054;-82
2021/03/20 01:32:26;;;;;;;5.93;4.57;;;;;;;1.43;71.12;101457.66;5007840;28;20092;-85
2021/03/20 01:34:52;;;;;;;6.53;4.57;;;;;;;1.41;72.00;101467.25;5022894;28;20102;-86
2021/03/20 01:37:19;;;;;;;7.05;4.72;;;;;;;1.39;72.19;101474.19;5005558;28;20077;-86
2021/03/20 01:39:49;;;;;;;6.05;4.47;;;;;;;1.36;71.89;101472.41;5014775;28;20069;-83
2021/03/20 01:42:16;;;;;;;7.20;4.60;;;;;;;1.36;72.23;101476.75;5013456;28;20050;-83
2021/03/20 01:44:43;;;;;;;7.03;5.07;;;;;;;1.33;72.36;101471.50;5016253;28;20046;-82
2021/03/20 01:47:14;;;;;;;7.32;4.50;;;;;;;1.34;72.72;101478.47;5021494;28;20060;-86
2021/03/20 01:49:46;;;;;;;6.63;4.80;;;;;;;1.37;72.59;101475.91;5021324;28;20054;-83
2021/03/20 01:52:22;;;;;;;7.60;4.78;;;;;;;1.38;72.02;101478.53;5020388;28;20053;-83
2021/03/20 01:54:59;;;;;;;5.85;4.57;;;;;;;1.35;71.99;101470.66;5003451;28;20109;-82
2021/03/20 01:57:39;;;;;;;7.85;4.78;;;;;;;1.32;72.25;101467.16;5020016;28;20057;-83
2021/03/20 02:00:11;;;;;;;7.47;4.60;;;;;;;1.27;72.03;101471.44;5017327;28;20494;-85
2021/03/20 02:02:37;;;;;;;6.18;4.70;;;;;;;1.26;72.18;101464.50;5013858;28;20047;-87
2021/03/20 02:05:06;;;;;;;6.10;4.70;;;;;;;1.25;72.08;101467.97;5021672;28;20077;-87
2021/03/20 02:07:33;;;;;;;5.97;4.60;;;;;;;1.23;72.45;101467.97;5015643;28;20049;-85
2021/03/20 02:10:10;;;;;;;7.85;4.70;;;;;;;1.22;72.67;101470.56;5034160;28;20050;-85
2021/03/20 02:12:40;;;;;;;6.03;4.38;;;;;;;1.21;72.66;101466.19;5033952;28;20080;-82
2021/03/20 02:15:27;;;;;;;6.83;4.40;;;;;;;1.20;72.68;101472.28;5034818;28;20096;-84
2021/03/20 02:17:59;;;;;;;6.30;4.70;;;;;;;1.20;72.41;101464.44;5021524;28;20100;-83
2021/03/20 02:20:46;;;;;;;9.52;4.70;;;;;;;1.21;72.54;101450.53;5024362;28;20058;-84
2021/03/20 02:23:47;;;;;;;8.23;4.65;;;;;;;1.25;72.01;101447.09;5020619;28;20046;-82
2021/03/20 02:26:55;;;;;;;6.18;4.15;;;;;;;1.23;72.08;101446.22;5020382;28;20050;-83
2021/03/20 02:29:50;;;;;;;4.97;3.85;;;;;;;1.19;72.43;101447.03;4954883;28;20051;-83
2021/03/20 02:32:31;;;;;;;5.65;3.85;;;;;;;1.16;71.75;101441.78;5017765;28;20049;-83
2021/03/20 02:35:04;;;;;;;5.07;3.90;;;;;;;1.14;71.49;101449.59;5024459;28;20039;-82
2021/03/20 02:37:54;;;;;;;4.70;3.70;;;;;;;1.13;71.16;101455.69;5029085;28;20116;-82
2021/03/20 02:40:50;;;;;;;;;;;;;;;1.17;70.99;101464.41;5017026;28;20061;-83
2021/03/20 02:43:25;;;;;;;5.78;3.83;;;;;;;1.10;70.83;101463.50;5010894;28;19935;-82
2021/03/20 02:46:24;;;;;;;5.22;3.75;;;;;;;1.11;71.92;101464.34;5018735;28;21804;-83
2021/03/20 02:49:01;;;;;;;5.03;3.35;;;;;;;1.08;70.72;101473.06;5010509;28;20086;-83
2021/03/20 02:51:38;;;;;;;6.30;3.28;;;;;;;1.07;70.44;101478.25;5011861;28;20061;-83
2021/03/20 02:54:28;;;;;;;8.45;3.63;;;;;;;1.08;70.80;101482.59;5011796;28;20493;-83
2021/03/20 02:57:07;;;;;;;4.88;3.25;;;;;;;1.12;71.23;101487.84;5011820;28;20049;-86
2021/03/20 02:59:37;;;;;;;5.57;3.95;;;;;;;1.18;71.08;101484.44;5014225;28;20052;-82
2021/03/20 03:02:06;;;;;;;6.05;3.53;;;;;;;1.18;70.89;101474.00;5016501;28;20065;-87
2021/03/20 03:04:42;;;;;;;7.43;3.88;;;;;;;1.16;70.54;101476.59;5015278;28;20064;-83
2021/03/20 03:07:19;;;;;;;4.78;3.35;;;;;;;1.13;70.88;101470.47;5026037;28;20498;-80
2021/03/20 03:09:52;;;;;;;5.18;3.65;;;;;;;1.08;71.02;101475.66;5023643;28;20050;-84
2021/03/20 03:12:48;;;;;;;8.23;4.20;;;;;;;1.01;71.32;101474.72;5018445;28;20050;-80
2021/03/20 03:15:26;;;;;;;6.07;3.67;;;;;;;0.99;71.71;101484.25;5027959;28;20057;-83
2021/03/20 03:18:00;;;;;;;4.43;3.58;;;;;;;0.92;71.77;101477.25;5025846;28;20446;-86
2021/03/20 03:20:35;;;;;;;6.45;3.75;;;;;;;0.91;71.60;101490.28;5028481;28;20085;-79
2021/03/20 03:23:09;;;;;;;6.32;3.50;;;;;;;0.89;71.09;101497.19;5021246;28;20057;-83
2021/03/20 03:25:40;;;;;;;5.60;3.28;;;;;;;0.91;70.80;101505.91;5023906;28;20096;-82
2021/03/20 03:28:10;;;;;;;5.00;3.47;;;;;;;0.90;70.50;101507.66;5025638;28;20040;-81
2021/03/20 03:30:37;;;;;;;6.07;3.17;;;;;;;0.91;70.07;101509.41;5027345;28;20073;-81
2021/03/20 03:33:12;;;;;;;4.93;3.10;;;;;;;0.91;69.92;101504.19;5024014;28;20118;-82
2021/03/20 03:35:44;;;;;;;7.97;3.28;;;;;;;0.91;70.29;101492.88;5029953;28;20047;-82
2021/03/20 03:38:17;;;;;;;7.65;3.10;;;;;;;0.90;69.77;101488.53;5019656;28;20054;-83
2021/03/20 03:40:56;;;;;;;6.70;3.20;;;;;;;0.85;69.85;101479.78;5020273;28;20085;-83
2021/03/20 03:43:23;;;;;;;5.43;3.10;;;;;;;0.80;69.52;101476.22;5006409;28;20053;-82
2021/03/20 03:45:51;;;;;;;6.53;2.92;;;;;;;0.74;68.79;101474.47;4998334;28;20081;-81
2021/03/20 03:48:19;;;;;;;5.43;2.83;;;;;;;0.68;68.66;101479.59;5029675;28;20057;-80
2021/03/20 03:50:48;;;;;;;5.53;2.75;;;;;;;0.64;67.75;101493.44;5026568;28;20061;-81
2021/03/20 03:53:20;;;;;;;5.72;2.75;;;;;;;0.59;66.70;101488.22;5023467;28;20058;-80
2021/03/20 03:55:46;;;;;;;4.90;2.72;;;;;;;0.55;66.50;101489.03;5021126;28;20791;-82
2021/03/20 03:58:39;;;;;;;5.88;2.80;;;;;;;0.53;65.91;101485.53;5025902;28;20049;-82
2021/03/20 04:01:36;;;;;;;3.50;2.50;;;;;;;0.51;66.24;101483.75;5023989;28;20057;-82
2021/03/20 04:04:34;;;;;;;5.47;2.65;;;;;;;0.56;65.32;101482.06;5019127;28;20097;-81
2021/03/20 04:07:31;;;;;;;3.28;2.35;;;;;;;0.55;65.51;101473.38;4998579;28;20180;-81
2021/03/20 04:10:13;;;;;;;5.00;2.47;;;;;;;0.53;65.54;101482.03;5026295;28;20053;-81
2021/03/20 04:13:05;;;;;;;4.00;2.40;;;;;;;0.47;65.38;101484.59;5014577;28;20054;-85
2021/03/20 04:15:50;;;;;;;4.88;2.40;;;;;;;0.47;65.60;101487.19;5020472;28;20105;-79
2021/03/20 04:18:50;;;;;;;4.43;2.47;;;;;;;0.48;65.54;101499.34;5016959;28;20064;-84
2021/03/20 04:21:29;;;;;;;2.97;2.55;;;;;;;0.48;65.37;101497.63;5019909;28;20046;-83
2021/03/20 04:24:06;;;;;;;4.18;2.65;;;;;;;0.49;65.56;101506.31;5028029;28;20057;-83
2021/03/20 04:26:42;;;;;;;5.68;2.58;;;;;;;0.45;65.79;101507.16;5008987;28;20073;-82
2021/03/20 04:29:32;;;;;;;4.65;2.45;;;;;;;0.47;66.37;101514.13;5024945;28;20113;-84
2021/03/20 04:32:11;;;;;;;3.53;2.70;;;;;;;0.47;66.09;101513.25;5032811;28;20034;-86
2021/03/20 04:34:48;;;;;;;3.70;2.63;;;;;;;0.42;66.21;101518.41;5028486;28;20129;-83
2021/03/20 04:37:19;;;;;;;3.45;2.53;;;;;;;0.43;66.08;101525.38;5028884;28;20088;-83
2021/03/20 04:39:48;;;;;;;4.70;2.15;;;;;;;0.43;64.80;101534.91;5021845;28;20069;-83
2021/03/20 04:42:37;;;;;;;4.90;2.27;;;;;;;0.42;64.52;101528.84;5023452;28;20072;-87
2021/03/20 04:45:15;;;;;;;3.17;2.45;;;;;;;0.41;64.40;101528.81;5023626;28;20064;-82
2021/03/20 04:47:42;;;;;;;3.33;2.25;;;;;;;0.42;63.84;101528.84;5015724;28;20060;-84
2021/03/20 04:50:19;;;;;;;5.78;2.30;;;;;;;0.41;63.74;101532.28;5010570;28;21635;-83
2021/03/20 04:52:49;;;;;;;4.22;2.28;;;;;;;0.43;62.80;101525.38;5011639;28;20060;-82
2021/03/20 04:55:15;;;;;;;5.68;2.15;;;;;;;0.44;62.68;101523.66;5009947;28;20056;-82
2021/03/20 04:58:08;;;;;;;3.25;1.88;;;;;;;0.41;62.73;101526.19;5006204;28;20056;-85
2021/03/20 05:00:44;;;;;;;5.90;2.05;;;;;;;0.39;62.64;101539.22;4995614;28;20167;-83
2021/03/20 05:03:43;;;;;;;3.28;1.77;;;;;;;0.39;62.44;101527.91;5006952;28;20512;-81
2021/03/20 05:06:13;;;;;;;5.38;2.03;;;;;;;0.33;62.62;101528.69;5003955;28;20064;-83
2021/03/20 05:08:53;;;;;;;2.73;1.60;;;;;;;0.28;62.03;101528.66;5015498;28;20054;-81
2021/03/20 05:11:39;;;;;;;4.85;1.80;;;;;;;0.31;62.29;101552.16;5019366;28;20524;-85
2021/03/20 05:14:16;;;;;;;5.45;1.73;;;;;;;0.30;62.57;101552.13;5017659;28;20042;-82
2021/03/20 05:16:51;;;;;;;2.92;1.38;;;;;;;0.26;62.46;101553.81;5027179;28;20053;-85
2021/03/20 05:19:20;;;;;;;4.15;1.95;;;;;;;0.19;62.86;101554.56;5027486;28;20089;-82
2021/03/20 05:21:53;;;;;;;3.22;1.60;;;;;;;0.15;61.86;101547.59;5014457;28;20153;-82
2021/03/20 05:24:24;;;;;;;3.10;1.45;;;;;;;0.13;61.00;101553.63;5007541;28;20045;-86
2021/03/20 05:26:53;;;;;;;3.97;1.60;;;;;;;0.12;60.71;101559.69;5006062;28;20124;-82
2021/03/20 05:29:23;;;;;;;3.13;1.40;;;;;;;0.06;61.01;101560.47;4999028;28;20492;-83
2021/03/20 05:31:49;;;;;;;3.80;1.75;;;;;;;0.07;60.76;101548.31;5011269;28;20084;-84
2021/03/20 05:34:18;;;;;;;2.88;1.50;;;;;;;0.11;59.81;101551.00;4996880;28;20042;-84
2021/03/20 05:36:45;;;;;;;3.10;1.58;;;;;;;0.08;60.30;101548.34;5011645;28;20081;-82
2021/03/20 05:39:13;;;;;;;4.90;1.60;;;;;;;0.07;60.23;101544.00;4998259;28;20057;-84
2021/03/20 05:42:04;;;;;;;3.33;1.40;;;;;;;0.20;59.55;101545.91;5010703;28;20075;-83
2021/03/20 05:44:46;;;;;;;2.70;1.63;;;;;;;0.24;59.33;101554.63;5013536;28;20048;-83
2021/03/20 05:47:58;;;;;;;4.53;1.42;;;;;;;0.29;58.93;101572.09;5007260;28;20056;-83
2021/03/20 05:50:44;;;;;;;3.28;1.08;;;;;;;0.32;58.82;101586.88;5007356;28;20140;-85
2021/03/20 05:53:28;;;;;;;2.40;1.35;;;;;;;0.37;58.00;101585.22;5014236;28;20062;-83
2021/03/20 05:56:04;;;;;;;3.67;1.70;;;;;;;0.38;58.12;101584.34;5017587;28;20062;-85
2021/03/20 05:59:08;;;;;;;2.13;1.30;;;;;;;0.40;58.42;101589.59;5020323;28;20109;-83
2021/03/20 06:02:07;;;;;;;6.65;2.88;;;;;;;0.46;58.21;101594.91;5020673;28;20057;-83
2021/03/20 06:04:35;;;;;;;2.75;1.60;;;;;;;0.53;56.64;101602.81;4949673;28;20053;-83
2021/03/20 06:07:13;;;;;;;5.78;1.42;;;;;;;0.51;56.37;101604.50;5019906;28;20053;-83
2021/03/20 06:09:55;;;;;;;3.90;1.52;;;;;;;0.57;56.95;101614.16;5019659;28;20133;-86
2021/03/20 06:12:39;;;;;;;4.05;1.38;;;;;;;0.60;55.31;101616.81;5028533;28;20057;-82
2021/03/20 06:15:12;;;;;;;6.60;1.27;;;;;;;0.52;55.46;101618.41;5005711;28;20361;-83
2021/03/20 06:18:01;;;;;;;2.10;1.23;;;;;;;0.54;55.78;101608.88;5017175;28;20081;-81
2021/03/20 06:21:15;;;;;;;3.65;1.30;;;;;;;0.60;55.92;101616.81;5022693;28;20111;-83
2021/03/20 06:23:51;;;;;;;2.67;1.30;;;;;;;0.60;54.42;101608.97;5012326;28;20872;-83
2021/03/20 06:26:34;;;;;;;3.00;0.90;;;;;;;0.64;54.35;101608.13;5018237;28;20452;-84
2021/03/20 06:29:09;;;;;;;3.60;1.35;;;;;;;0.80;54.08;101615.31;5011127;28;20060;-82
2021/03/20 06:31:44;;;;;;;4.50;1.40;;;;;;;0.76;53.20;101605.72;5020091;28;20054;-84
2021/03/20 06:34:20;;;;;;;4.28;1.30;;;;;;;0.84;53.65;101614.50;5017177;28;20050;-85
2021/03/20 06:37:06;;;;;;;1.90;1.08;;;;;;;0.93;53.23;101613.75;5013989;28;20053;-84
2021/03/20 06:39:34;;;;;;;4.70;1.20;;;;;;;1.04;53.02;101613.00;5016792;28;20100;-83
2021/03/20 06:42:10;;;;;;;4.32;1.30;;;;;;;1.17;52.25;101614.00;5013031;28;20056;-86
2021/03/20 06:44:40;;;;;;;3.45;1.30;;;;;;;1.26;52.13;101618.47;5009205;28;20058;-86
2021/03/20 06:47:13;;;;;;;2.03;1.00;;;;;;;1.19;52.51;101612.28;5012588;28;20089;-84
2021/03/20 06:49:46;;;;;;;4.00;1.35;;;;;;;1.03;53.55;101603.41;5010699;28;20061;-84
2021/03/20 06:52:21;;;;;;;2.72;1.23;;;;;;;1.01;54.32;101604.25;5013136;28;20084;-82
2021/03/20 06:54:55;;;;;;;3.72;1.25;;;;;;;1.10;54.42;101603.50;5011955;28;20046;-84
2021/03/20 06:57:21;;;;;;;4.13;1.40;;;;;;;1.50;54.37;101607.38;5012848;28;20056;-84
2021/03/20 06:59:48;;;;;;;2.05;1.00;;;;;;;2.90;50.69;101603.03;5016333;28;20431;-84
2021/03/20 07:02:27;;;;;;;3.90;1.52;;;;;;;4.46;46.98;101604.88;5012981;28;20053;-83
2021/03/20 07:05:22;;;;;;;3.33;1.15;;;;;;;5.21;44.31;101610.66;5009963;28;20054;-85
2021/03/20 07:08:26;;;;;;;2.13;1.00;;;;;;;6.12;41.69;101623.19;5015384;28;20080;-84
2021/03/20 07:10:55;;;;;;;3.15;1.30;;;;;;;5.87;40.38;101627.72;5019982;28;20074;-83
2021/03/20 07:13:28;;;;;;;3.45;1.38;;;;;;;5.51;41.68;101628.03;5023284;28;20176;-82
2021/03/20 07:16:07;;;;;;;2.35;1.00;;;;;;;5.24;39.70;101632.53;5022437;28;20113;-83
2021/03/20 07:18:47;;;;;;;3.63;1.23;;;;;;;5.17;41.04;101630.84;5019706;28;20050;-85
2021/03/20 07:21:31;;;;;;;3.42;1.15;;;;;;;5.69;41.19;101632.25;5028268;28;20050;-82
2021/03/20 07:24:09;;;;;;;2.58;1.02;;;;;;;6.85;38.38;101632.91;5029154;28;20070;-85
2021/03/20 07:26:56;;;;;;;2.22;1.00;;;;;;;7.88;37.18;101638.47;5016511;28;20061;-84
2021/03/20 07:29:41;;;;;;;2.15;1.15;;;;;;;8.60;35.36;101638.13;5019818;28;20084;-83
2021/03/20 07:32:11;;;;;;;3.45;1.02;;;;;;;9.06;34.12;101634.56;5016309;28;20064;-84
2021/03/20 07:34:38;;;;;;;3.13;1.10;;;;;;;9.36;32.83;101639.19;5017820;28;20133;-87
2021/03/20 07:37:19;;;;;;;4.38;1.40;;;;;;;9.27;32.91;101644.69;5021890;28;20061;-88
2021/03/20 07:39:52;;;;;;;3.30;1.00;;;;;;;8.77;33.72;101649.25;5031887;28;20038;-81
2021/03/20 07:42:40;;;;;;;1.98;1.13;;;;;;;8.25;33.08;101657.22;5030612;28;20068;-85
2021/03/20 07:45:17;;;;;;;2.28;1.02;;;;;;;8.03;34.07;101654.06;5027284;28;20053;-80
2021/03/20 07:47:55;;;;;;;1.70;0.90;;;;;;;7.88;33.95;101659.56;5036316;28;20082;-81
2021/03/20 07:50:35;;;;;;;2.80;1.20;;;;;;;7.65;34.17;101656.44;5029673;28;20064;-85
2021/03/20 07:53:25;;;;;;;2.33;1.10;;;;;;;7.48;34.80;101663.72;5022306;28;20143;-81
2021/03/20 07:55:54;;;;;;;1.48;1.00;;;;;;;7.58;35.05;101665.31;4997055;28;20054;-82
2021/03/20 07:58:40;;;;;;;1.63;0.80;;;;;;;8.09;33.84;101661.88;5018090;28;20925;-84
2021/03/20 08:01:18;;;;;;;2.47;0.90;;;;;;;8.66;32.67;101663.53;5011693;28;20046;-83
2021/03/20 08:04:01;;;;;;;1.80;0.73;;;;;;;9.22;31.97;101658.91;5013611;28;20077;-83
2021/03/20 08:06:49;;;;;;;1.75;1.00;;;;;;;9.45;30.08;101670.69;5015303;28;20058;-82
2021/03/20 08:09:19;;;;;;;1.67;0.80;;;;;;;9.37;30.52;101669.16;5025210;28;20093;-87
2021/03/20 08:11:48;;;;;;;2.75;1.00;;;;;;;9.34;30.62;101671.84;5016246;28;20065;-82
2021/03/20 08:14:21;;;;;;;2.67;0.80;;;;;;;9.32;30.69;101671.88;5024697;28;20042;-85
2021/03/20 08:16:49;;;;;;;2.10;0.98;;;;;;;8.91;31.31;101671.88;5023377;28;20054;-80
2021/03/20 08:19:17;;;;;;;2.40;1.02;;;;;;;8.30;31.25;101676.50;5017796;28;20121;-83
2021/03/20 08:22:20;;;;;;;1.98;0.68;;;;;;;7.31;32.46;101674.47;5020840;28;20078;-83
2021/03/20 08:25:41;;;;;;;1.65;0.82;;;;;;;6.40;33.78;101680.78;5027100;28;20045;-81
2021/03/20 08:28:41;;;;;;;1.90;0.90;;;;;;;6.31;34.37;101685.22;5016566;28;20096;-83
2021/03/20 08:31:43;;;;;;;2.35;1.05;;;;;;;5.86;35.60;101681.19;5018345;28;20050;-83
2021/03/20 08:34:29;;;;;;;1.80;0.90;;;;;;;5.54;35.20;101672.63;5016770;28;20073;-85
2021/03/20 08:37:25;;;;;;;1.98;1.17;;;;;;;5.16;36.17;101673.72;5022222;28;20077;-83
2021/03/20 08:40:20;;;;;;;4.13;1.13;;;;;;;5.19;36.72;101689.47;5016039;28;20460;-85
2021/03/20 08:43:20;;;;;;;2.58;1.10;;;;;;;5.31;37.27;101691.16;5019317;28;20054;-87
2021/03/20 08:46:24;;;;;;;1.98;1.00;;;;;;;5.50;37.95;101684.06;5025825;28;20054;-82
2021/03/20 08:49:08;;;;;;;1.70;0.90;;;;;;;5.76;37.98;101697.91;5010761;28;20057;-84
2021/03/20 08:51:56;;;;;;;4.53;1.05;;;;;;;6.03;37.74;101696.00;5024020;28;20121;-84
2021/03/20 08:54:41;;;;;;;1.52;1.00;;;;;;;6.12;37.11;101701.22;5025908;28;20053;-83
2021/03/20 08:57:20;;;;;;;2.47;0.90;;;;;;;5.78;37.21;101708.41;5029843;28;20120;-82
2021/03/20 08:59:55;;;;;;;3.00;1.10;;;;;;;5.64;38.47;101706.75;5013314;28;20061;-86
2021/03/20 09:02:25;;;;;;;3.05;1.13;;;;;;;5.76;37.75;101694.41;5035375;28;20144;-83
2021/03/20 09:05:21;;;;;;;3.67;0.87;;;;;;;5.74;38.22;101702.31;5030899;28;20045;-83
2021/03/20 09:08:00;;;;;;;4.32;1.50;;;;;;;5.55;37.26;101692.78;5017638;28;20046;-81
2021/03/20 09:10:36;;;;;;;3.42;1.00;;;;;;;5.21;37.04;101681.56;5016653;28;20058;-84
2021/03/20 09:13:28;;;;;;;4.05;2.40;;;;;;;5.08;39.34;101682.50;5019066;28;20113;-81
2021/03/20 09:16:26;;;;;;;1.27;0.80;;;;;;;5.06;37.85;101681.63;5018800;28;20057;-81
2021/03/20 09:18:54;;;;;;;2.00;0.90;;;;;;;4.92;37.93;101673.81;5019073;28;20042;-83
2021/03/20 09:21:20;;;;;;;2.85;2.00;;;;;;;4.99;36.73;101670.31;5021757;28;20058;-80
2021/03/20 09:23:52;;;;;;;2.05;1.10;;;;;;;5.03;36.89;101665.91;5029343;28;20137;-82
2021/03/20 09:26:48;;;;;;;2.17;0.90;;;;;;;4.83;37.33;101673.84;5002964;28;20054;-84
2021/03/20 09:29:26;;;;;;;1.55;1.13;;;;;;;4.88;38.07;101680.81;5026231;28;20054;-80
2021/03/20 09:31:52;;;;;;;1.40;0.85;;;;;;;5.18;35.92;101687.72;5029854;28;20037;-84
2021/03/20 09:34:33;;;;;;;1.02;0.63;;;;;;;5.05;36.58;101680.75;5030781;28;20058;-84
2021/03/20 09:37:18;;;;;;;;;;;;;;;4.69;37.23;101671.28;5028828;28;20056;-84
2021/03/20 09:39:44;;;;;;;3.00;0.85;;;;;;;4.72;38.75;101665.16;5024810;28;20132;-84
2021/03/20 09:42:29;;;;;;;2.65;1.00;;;;;;;4.85;38.27;101672.97;5026752;28;20089;-81
2021/03/20 09:45:10;;;;;;;3.65;1.08;;;;;;;4.86;35.22;101665.97;5025980;28;20092;-84
2021/03/20 09:47:51;;;;;;;2.00;1.10;;;;;;;4.71;35.73;101659.03;5026994;28;20117;-85
2021/03/20 09:50:17;;;;;;;2.13;0.60;;;;;;;4.66;36.75;101657.28;5027847;28;20109;-83
2021/03/20 09:52:51;;;;;;;1.67;0.77;;;;;;;4.81;35.80;101662.50;5025748;28;20077;-81
2021/03/20 09:55:42;;;;;;;0.77;0.65;;;;;;;4.70;37.30;101659.91;5031091;28;20054;-85
2021/03/20 09:58:18;;;;;;;;;;;;;;;4.57;34.68;101660.78;5025051;28;20073;-81
2021/03/20 10:00:50;;;;;;;3.08;0.82;;;;;;;4.54;34.41;101659.06;5023112;28;19948;-83
2021/03/20 10:03:50;;;;;;;1.98;0.70;;;;;;;4.69;33.22;101657.28;5019517;28;20054;-83
2021/03/20 10:06:35;;;;;;;1.23;0.90;;;;;;;4.97;32.97;101644.94;5018199;28;20050;-81
2021/03/20 10:09:11;;;;;;;1.85;0.70;;;;;;;5.13;31.58;101650.09;5021344;28;20136;-82
2021/03/20 10:12:00;;;;;;;1.27;0.70;;;;;;;5.20;33.03;101653.56;5026613;28;20062;-86
2021/03/20 10:14:51;;;;;;;0.98;0.60;;;;;;;5.14;31.56;101657.09;5033240;28;20110;-86
2021/03/20 10:17:22;;;;;;;1.05;0.70;;;;;;;5.14;32.44;101657.09;5010168;28;20038;-85
2021/03/20 10:19:51;;;;;;;;;;;;;;;5.26;31.61;101654.41;5035695;28;20073;-84
2021/03/20 10:22:27;;;;;;;1.58;0.70;;;;;;;5.29;31.83;101656.16;5032417;28;19914;-80
2021/03/20 10:24:55;;;;;;;3.67;1.33;;;;;;;5.31;33.20;101658.78;5033942;28;20061;-82
2021/03/20 10:27:39;;;;;;;1.25;0.80;;;;;;;5.23;34.18;101649.16;5031177;28;20077;-80
2021/03/20 10:30:16;;;;;;;1.48;0.80;;;;;;;5.14;32.92;101645.72;5024426;28;20046;-81
2021/03/20 10:33:05;;;;;;;1.02;0.70;;;;;;;5.04;31.87;101655.38;5033273;28;20068;-82
2021/03/20 10:35:37;;;;;;;5.15;0.88;;;;;;;4.90;31.39;101660.69;5033949;28;20049;-85
2021/03/20 10:38:14;;;;;;;2.88;0.90;;;;;;;4.88;32.95;101651.94;5019598;28;20150;-85
2021/03/20 10:40:42;;;;;;;1.58;0.90;;;;;;;5.04;33.06;101651.88;5018635;28;20034;-82
2021/03/20 10:43:14;;;;;;;1.35;0.85;;;;;;;5.12;33.71;101643.09;5038601;28;20038;-82
2021/03/20 10:45:43;;;;;;;1.85;0.90;;;;;;;5.01;32.58;101644.03;5022504;28;20058;-83
2021/03/20 10:48:18;;;;;;;1.20;0.80;;;;;;;5.13;33.39;101642.22;5050657;28;20041;-83
2021/03/20 10:50:56;;;;;;;1.83;0.80;;;;;;;5.28;32.06;101646.53;5022414;28;20057;-81
2021/03/20 10:53:26;;;;;;;2.17;0.73;;;;;;;5.33;31.06;101638.63;5032474;28;20057;-81
2021/03/20 10:55:55;;;;;;;2.42;0.98;;;;;;;5.50;31.91;101642.03;5034870;28;20081;-80
2021/03/20 10:58:38;;;;;;;1.70;0.70;;;;;;;5.46;28.75;101645.56;5029940;28;20433;-80
2021/03/20 11:01:06;;;;;;;1.48;0.90;;;;;;;5.31;30.09;101641.28;5017124;28;20070;-83
2021/03/20 11:03:37;;;;;;;1.80;0.73;;;;;;;5.36;31.23;101643.84;5014736;28;20114;-84
2021/03/20 11:06:16;;;;;;;1.42;0.88;;;;;;;5.37;30.14;101635.09;5016796;28;20101;-81
2021/03/20 11:08:47;;;;;;;;;;;;;;;5.31;28.47;101641.28;5025709;28;20050;-82
2021/03/20 11:11:16;;;;;;;2.53;1.40;;;;;;;5.25;30.66;101641.28;5023622;28;20380;-80
2021/03/20 11:13:52;;;;;;;2.22;0.68;;;;;;;5.20;31.67;101627.31;5020923;28;20107;-82
2021/03/20 11:16:25;;;;;;;0.98;0.85;;;;;;;5.33;31.16;101620.25;5011611;28;20104;-82
2021/03/20 11:19:05;;;;;;;1.40;0.60;;;;;;;5.50;29.80;101621.03;5014952;28;20073;-82
2021/03/20 11:21:40;;;;;;;3.25;0.77;;;;;;;5.76;29.31;101618.19;5016570;28;20060;-82
2021/03/20 11:24:28;;;;;;;2.30;0.80;;;;;;;5.92;29.61;101627.75;4987495;28;20481;-84
2021/03/20 11:26:56;;;;;;;1.58;0.70;;;;;;;5.90;29.73;101619.84;5016493;28;20054;-82
2021/03/20 11:29:28;;;;;;;3.72;0.80;;;;;;;5.75;28.61;101626.97;5014511;28;20647;-83
2021/03/20 11:32:17;;;;;;;2.60;0.85;;;;;;;5.72;28.81;101619.97;5021513;28;20050;-82
2021/03/20 11:34:44;;;;;;;3.22;0.90;;;;;;;5.51;29.17;101622.75;5023840;28;20064;-84
2021/03/20 11:37:23;;;;;;;2.75;1.75;;;;;;;5.52;29.61;101621.84;5019392;28;20527;-84
2021/03/20 11:39:59;;;;;;;3.25;2.72;;;;;;;5.61;29.61;101622.69;5001287;28;20072;-82
2021/03/20 11:42:39;;;;;;;2.80;1.60;;;;;;;5.67;28.33;101628.78;4998427;28;20072;-83
2021/03/20 11:45:17;;;;;;;1.50;1.10;;;;;;;5.43;29.08;101627.19;5018409;28;20050;-84
2021/03/20 11:47:49;;;;;;;1.17;0.80;;;;;;;5.23;28.73;101616.78;5014012;28;20056;-82
2021/03/20 11:50:26;;;;;;;2.92;0.90;;;;;;;5.14;28.80;101615.09;5018003;28;20049;-81
2021/03/20 11:52:57;;;;;;;1.38;1.10;;;;;;;5.39;27.64;101607.06;4998981;28;20054;-82
2021/03/20 11:55:30;;;;;;;1.85;0.93;;;;;;;5.49;26.91;101620.16;4995869;28;20081;-85
2021/03/20 11:58:05;;;;;;;3.83;2.60;;;;;;;5.56;27.54;101605.19;5015448;28;20073;-83
2021/03/20 12:00:44;;;;;;;3.33;2.10;;;;;;;5.88;28.46;101607.56;5022557;28;20057;-81
2021/03/20 12:03:36;;;;;;;2.67;0.98;;;;;;;6.32;28.03;101599.28;5025953;28;20119;-82
2021/03/20 12:06:34;;;;;;;1.88;1.35;;;;;;;6.45;26.61;101606.19;5029529;28;20057;-83
2021/03/20 12:13:23;;;;;;;1.05;1.00;;;;;;;6.85;27.07;101590.78;5030512;28;20041;-81
2021/03/20 12:15:54;;;;;;;1.05;0.80;;;;;;;7.17;27.80;101586.84;5016588;28;20053;-81
2021/03/20 12:22:04;;;;;;;3.03;1.23;;;;;;;7.30;27.31;101578.75;5034244;28;20443;-81
2021/03/20 12:24:44;;;;;;;2.40;1.60;;;;;;;7.11;26.91;101576.41;5035025;28;20053;-81
2021/03/20 12:30:33;;;;;;;3.40;1.15;;;;;;;6.90;28.16;101570.56;5031060;28;20069;-80
2021/03/20 12:33:11;;;;;;;2.22;1.30;;;;;;;6.89;28.10;101573.19;5041340;28;20146;-80